createdAt,value
2023-05-06T00:01:22.221Z,6.15
2023-05-06T00:03:49.360Z,6.68
2023-05-06T00:06:16.792Z,6.45
2023-05-06T00:08:43.755Z,6.50
2023-05-06T00:11:10.652Z,5.78
2023-05-06T00:13:38.438Z,6.20
2023-05-06T00:16:05.910Z,6.30
2023-05-06T00:18:33.201Z,5.80
2023-05-06T00:21:01.045Z,6.18
2023-05-06T00:23:28.165Z,5.80
2023-05-06T00:25:55.254Z,6.38
2023-05-06T00:28:22.274Z,6.20
2023-05-06T00:30:49.236Z,6.10
2023-05-06T00:33:16.123Z,6.25
2023-05-06T00:35:43.094Z,5.75
2023-05-06T00:38:12.170Z,5.88
2023-05-06T00:40:39.379Z,5.70
2023-05-06T00:43:06.375Z,5.57
2023-05-06T00:45:33.377Z,5.55
2023-05-06T00:48:00.401Z,6.88
2023-05-06T00:50:28.730Z,5.78
2023-05-06T00:52:57.159Z,6.10
2023-05-06T00:55:24.705Z,5.72
2023-05-06T00:57:52.679Z,6.25
2023-05-06T01:00:19.850Z,5.88
2023-05-06T01:02:48.245Z,6.18
2023-05-06T01:05:18.749Z,5.93
2023-05-06T01:08:03.854Z,5.95
2023-05-06T01:11:06.684Z,6.05
2023-05-06T01:13:39.697Z,5.95
2023-05-06T01:16:07.689Z,6.20
2023-05-06T01:18:35.041Z,5.82
2023-05-06T01:21:02.206Z,6.13
2023-05-06T01:23:29.173Z,6.47
2023-05-06T01:25:56.426Z,6.93
2023-05-06T01:28:23.245Z,7.10
2023-05-06T01:30:53.704Z,6.82
2023-05-06T01:33:51.584Z,6.65
2023-05-06T01:36:46.807Z,6.05
2023-05-06T01:39:25.896Z,5.93
2023-05-06T01:41:54.324Z,5.65
2023-05-06T01:44:22.195Z,6.18
2023-05-06T01:46:49.926Z,6.20
2023-05-06T01:49:17.192Z,5.75
2023-05-06T01:51:51.147Z,5.68
2023-05-06T01:54:18.273Z,7.15
2023-05-06T01:56:45.218Z,7.18
2023-05-06T01:59:12.104Z,6.85
2023-05-06T02:01:39.039Z,7.03
2023-05-06T02:04:05.954Z,8.73
2023-05-06T02:06:32.870Z,7.18
2023-05-06T02:08:59.761Z,6.25
2023-05-06T02:11:26.560Z,8.10
2023-05-06T02:13:53.498Z,6.20
2023-05-06T02:16:22.048Z,6.63
2023-05-06T02:18:49.042Z,6.70
2023-05-06T02:21:16.124Z,6.75
2023-05-06T02:23:43.071Z,6.78
2023-05-06T02:26:10.928Z,7.03
2023-05-06T02:28:37.819Z,7.28
2023-05-06T02:31:04.738Z,7.10
2023-05-06T02:33:31.661Z,8.38
2023-05-06T02:35:58.514Z,7.70
2023-05-06T02:38:26.185Z,8.43
2023-05-06T02:40:52.987Z,9.57
2023-05-06T02:43:19.867Z,7.75
2023-05-06T02:45:46.719Z,7.53
2023-05-06T02:48:13.724Z,7.05
2023-05-06T02:50:41.333Z,7.43
2023-05-06T02:53:09.529Z,7.30
2023-05-06T02:55:36.555Z,7.85
2023-05-06T02:58:03.381Z,7.75
2023-05-06T03:00:30.258Z,7.40
2023-05-06T03:02:57.235Z,7.20
2023-05-06T03:05:24.394Z,7.60
2023-05-06T03:07:51.362Z,7.20
2023-05-06T03:10:18.260Z,7.70
2023-05-06T03:12:45.266Z,7.72
2023-05-06T03:15:12.241Z,7.35
2023-05-06T03:17:39.769Z,6.72
2023-05-06T03:20:08.846Z,7.07
2023-05-06T03:22:35.958Z,7.07
2023-05-06T03:25:02.869Z,7.35
2023-05-06T03:27:30.135Z,7.53
2023-05-06T03:29:56.919Z,7.97
2023-05-06T03:32:23.764Z,8.77
2023-05-06T03:34:51.316Z,8.02
2023-05-06T03:37:18.887Z,8.02
2023-05-06T03:39:45.746Z,7.03
2023-05-06T03:42:12.584Z,7.15
2023-05-06T03:44:39.429Z,7.13
2023-05-06T03:47:06.270Z,7.45
2023-05-06T03:49:33.128Z,7.72
2023-05-06T03:51:59.962Z,7.82
2023-05-06T03:54:26.899Z,7.70
2023-05-06T03:56:53.756Z,7.30
2023-05-06T03:59:20.585Z,8.23
2023-05-06T04:01:47.549Z,7.57
2023-05-06T04:04:14.493Z,7.45
2023-05-06T04:06:41.445Z,7.82
2023-05-06T04:09:08.349Z,12.02
2023-05-06T04:11:36.040Z,14.25
2023-05-06T04:14:02.979Z,13.35
2023-05-06T04:16:30.033Z,11.80
2023-05-06T04:18:57.703Z,11.73
2023-05-06T04:21:24.592Z,12.77
2023-05-06T04:23:51.711Z,13.77
2023-05-06T04:26:18.632Z,10.23
2023-05-06T04:28:46.113Z,10.98
2023-05-06T04:31:14.951Z,11.57
2023-05-06T04:33:42.303Z,10.93
2023-05-06T04:36:09.212Z,11.50
2023-05-06T04:38:37.730Z,11.13
2023-05-06T04:41:05.532Z,11.00
2023-05-06T04:43:32.949Z,9.77
2023-05-06T04:46:00.092Z,10.88
2023-05-06T04:48:27.194Z,9.52
2023-05-06T04:50:54.188Z,10.38
2023-05-06T04:53:21.161Z,9.55
2023-05-06T04:55:48.045Z,10.27
2023-05-06T04:58:15.023Z,10.20
2023-05-06T05:00:41.991Z,8.98
2023-05-06T05:03:08.912Z,8.90
2023-05-06T05:05:35.908Z,7.93
2023-05-06T05:08:02.722Z,8.00
2023-05-06T05:10:29.675Z,8.15
2023-05-06T05:12:56.699Z,7.90
2023-05-06T05:15:23.746Z,7.60
2023-05-06T05:17:51.142Z,7.53
2023-05-06T05:20:18.217Z,7.72
2023-05-06T05:22:45.003Z,7.65
2023-05-06T05:25:12.344Z,7.65
2023-05-06T05:27:39.762Z,7.22
2023-05-06T05:30:08.112Z,7.10
2023-05-06T05:32:35.085Z,6.70
2023-05-06T05:35:02.164Z,7.25
2023-05-06T05:37:29.165Z,7.05
2023-05-06T05:39:56.101Z,7.05
2023-05-06T05:42:22.967Z,7.18
2023-05-06T05:44:49.877Z,6.18
2023-05-06T05:47:16.750Z,6.50
2023-05-06T05:49:43.600Z,6.65
2023-05-06T05:52:10.422Z,6.25
2023-05-06T05:54:37.390Z,6.57
2023-05-06T05:57:04.586Z,6.00
2023-05-06T05:59:32.966Z,6.30
2023-05-06T06:01:59.882Z,6.43
2023-05-06T06:04:27.208Z,6.00
2023-05-06T06:06:54.179Z,6.95
2023-05-06T06:09:21.212Z,6.80
2023-05-06T06:11:48.172Z,6.22
2023-05-06T06:14:15.043Z,6.30
2023-05-06T06:16:42.178Z,6.47
2023-05-06T06:19:09.164Z,6.63
2023-05-06T06:21:36.169Z,6.70
2023-05-06T06:24:03.207Z,6.18
2023-05-06T06:26:30.023Z,5.97
2023-05-06T06:28:56.810Z,5.78
2023-05-06T06:31:24.031Z,5.63
2023-05-06T06:33:50.875Z,5.10
2023-05-06T06:36:17.666Z,5.10
2023-05-06T06:38:44.653Z,4.82
2023-05-06T06:41:11.550Z,4.80
2023-05-06T06:43:38.359Z,4.30
2023-05-06T06:46:05.328Z,4.30
2023-05-06T06:50:59.240Z,4.35
2023-05-06T06:53:26.087Z,3.78
2023-05-06T06:55:52.977Z,4.45
2023-05-06T07:00:46.847Z,4.97
2023-05-06T07:03:15.981Z,4.65
2023-05-06T07:05:42.936Z,4.60
2023-05-06T07:08:09.737Z,4.75
2023-05-06T07:10:36.849Z,4.28
2023-05-06T07:13:03.785Z,4.47
2023-05-06T07:15:30.739Z,4.93
2023-05-06T07:17:57.617Z,4.97
2023-05-06T07:20:24.526Z,4.80
2023-05-06T07:22:51.270Z,4.53
2023-05-06T07:25:18.212Z,4.80
2023-05-06T07:30:12.170Z,5.13
2023-05-06T07:32:43.650Z,4.55
2023-05-06T07:35:10.733Z,4.72
2023-05-06T07:37:38.049Z,4.53
2023-05-06T07:40:05.707Z,3.90
2023-05-06T07:42:32.739Z,4.10
2023-05-06T07:44:59.738Z,4.85
2023-05-06T07:47:31.863Z,4.00
2023-05-06T07:49:59.053Z,3.95
2023-05-06T07:52:25.844Z,4.32
2023-05-06T07:54:53.452Z,4.18
2023-05-06T07:57:20.343Z,4.00
2023-05-06T07:59:48.060Z,3.67
2023-05-06T08:02:15.409Z,4.30
2023-05-06T08:04:43.195Z,4.32
2023-05-06T08:07:11.020Z,4.10
2023-05-06T08:09:38.074Z,4.22
2023-05-06T08:12:04.863Z,3.88
2023-05-06T08:14:31.894Z,3.72
2023-05-06T08:16:58.810Z,3.70
2023-05-06T08:19:26.697Z,3.83
2023-05-06T08:21:53.599Z,4.10
2023-05-06T08:24:21.800Z,4.22
2023-05-06T08:26:48.722Z,3.70
2023-05-06T08:29:16.113Z,3.47
2023-05-06T08:31:43.638Z,3.80
2023-05-06T08:34:10.600Z,4.53
2023-05-06T08:36:37.511Z,4.05
2023-05-06T08:39:04.761Z,4.28
2023-05-06T08:41:31.826Z,4.10
2023-05-06T08:43:58.805Z,4.47
2023-05-06T08:46:27.862Z,3.80
2023-05-06T08:48:54.866Z,3.83
2023-05-06T08:51:23.669Z,4.40
2023-05-06T08:53:52.228Z,3.80
2023-05-06T08:56:19.262Z,3.75
2023-05-06T08:58:46.946Z,4.30
2023-05-06T09:01:14.981Z,4.00
2023-05-06T09:03:42.014Z,4.07
2023-05-06T09:06:09.066Z,3.85
2023-05-06T09:08:36.480Z,3.60
2023-05-06T09:11:03.405Z,3.70
2023-05-06T09:13:30.335Z,3.97
2023-05-06T09:15:57.189Z,3.58
2023-05-06T09:18:24.070Z,3.47
2023-05-06T09:20:51.143Z,3.42
2023-05-06T09:23:18.173Z,3.60
2023-05-06T09:25:46.312Z,3.83
2023-05-06T09:28:13.760Z,3.90
2023-05-06T09:30:41.938Z,3.90
2023-05-06T09:33:09.180Z,4.03
2023-05-06T09:35:40.498Z,3.70
2023-05-06T09:38:08.072Z,4.00
2023-05-06T09:40:36.203Z,4.00
2023-05-06T09:43:03.636Z,3.90
2023-05-06T09:45:30.986Z,3.70
2023-05-06T09:47:58.784Z,3.72
2023-05-06T09:50:26.729Z,3.83
2023-05-06T09:52:53.750Z,4.07
2023-05-06T09:55:21.446Z,3.83
2023-05-06T09:57:49.478Z,4.60
2023-05-06T10:00:17.328Z,4.50
2023-05-06T10:02:45.986Z,4.30
2023-05-06T10:05:14.049Z,4.07
2023-05-06T10:07:44.474Z,4.80
2023-05-06T10:10:14.641Z,4.70
2023-05-06T10:12:41.671Z,4.93
2023-05-06T10:15:09.913Z,4.70
2023-05-06T10:17:37.013Z,4.57
2023-05-06T10:20:05.048Z,3.92
2023-05-06T10:22:31.790Z,4.35
2023-05-06T10:25:07.531Z,4.28
2023-05-06T10:27:36.107Z,4.50
2023-05-06T10:30:02.944Z,4.70
2023-05-06T10:32:32.413Z,4.32
2023-05-06T10:35:06.421Z,4.43
2023-05-06T10:37:33.273Z,4.50
2023-05-06T10:40:00.206Z,4.15
2023-05-06T10:42:28.644Z,4.25
2023-05-06T10:45:04.208Z,4.80
2023-05-06T10:47:53.024Z,5.10
2023-05-06T10:50:23.479Z,5.70
2023-05-06T10:52:55.627Z,4.90
2023-05-06T10:55:36.103Z,4.82
2023-05-06T10:58:11.727Z,3.95
2023-05-06T11:00:38.712Z,4.55
2023-05-06T11:03:07.719Z,4.03
2023-05-06T11:05:52.863Z,4.60
2023-05-06T11:08:25.344Z,4.18
2023-05-06T11:10:53.433Z,4.18
2023-05-06T11:13:29.896Z,4.70
2023-05-06T11:15:57.915Z,4.50
2023-05-06T11:18:24.794Z,4.32
2023-05-06T11:21:09.978Z,4.28
2023-05-06T11:23:43.154Z,4.50
2023-05-06T11:26:10.554Z,4.20
2023-05-06T11:28:38.768Z,4.10
2023-05-06T11:33:34.010Z,4.28
2023-05-06T11:36:01.191Z,4.03
2023-05-06T11:38:45.745Z,3.80
2023-05-06T11:41:13.065Z,4.13
2023-05-06T11:43:40.156Z,3.80
2023-05-06T11:46:07.124Z,3.88
2023-05-06T11:48:34.015Z,3.90
2023-05-06T11:51:01.325Z,4.18
2023-05-06T11:53:28.215Z,3.63
2023-05-06T11:55:55.216Z,4.15
2023-05-06T11:58:28.960Z,3.90
2023-05-06T12:00:57.339Z,4.03
2023-05-06T12:03:26.052Z,3.88
2023-05-06T12:05:53.296Z,4.00
2023-05-06T12:08:31.221Z,3.60
2023-05-06T12:11:10.551Z,3.90
2023-05-06T12:13:37.934Z,3.97
2023-05-06T12:16:05.438Z,3.87
2023-05-06T12:18:32.539Z,3.92
2023-05-06T12:21:02.886Z,3.60
2023-05-06T12:23:30.016Z,3.80
2023-05-06T12:26:02.860Z,3.67
2023-05-06T12:28:30.692Z,3.70
2023-05-06T12:30:57.792Z,3.97
2023-05-06T12:33:24.753Z,3.47
2023-05-06T12:35:52.760Z,3.85
2023-05-06T12:38:19.580Z,3.70
2023-05-06T12:40:53.701Z,3.90
2023-05-06T12:43:28.707Z,3.78
2023-05-06T12:46:09.370Z,3.88
2023-05-06T12:48:36.426Z,3.53
2023-05-06T12:51:23.580Z,3.67
2023-05-06T12:53:50.531Z,3.60
2023-05-06T12:56:17.396Z,3.30
2023-05-06T12:58:44.336Z,3.50
2023-05-06T13:01:11.396Z,3.60
2023-05-06T13:03:41.158Z,3.35
2023-05-06T13:06:08.268Z,3.50
2023-05-06T13:08:35.177Z,3.50
2023-05-06T13:11:02.787Z,3.70
2023-05-06T13:13:29.708Z,3.40
2023-05-06T13:15:57.395Z,3.50
2023-05-06T13:18:24.420Z,4.00
2023-05-06T13:20:52.077Z,3.50
2023-05-06T13:23:19.735Z,4.07
2023-05-06T13:26:02.705Z,3.65
2023-05-06T13:28:30.047Z,3.75
2023-05-06T13:30:56.863Z,3.72
2023-05-06T13:33:23.687Z,3.53
2023-05-06T13:35:50.620Z,3.58
2023-05-06T13:38:17.418Z,3.70
2023-05-06T13:40:48.395Z,3.80
2023-05-06T13:43:16.117Z,3.35
2023-05-06T13:45:45.161Z,3.00
2023-05-06T13:48:13.122Z,3.30
2023-05-06T13:50:44.347Z,3.40
2023-05-06T13:53:11.941Z,3.20
2023-05-06T13:55:38.780Z,3.58
2023-05-06T13:58:06.311Z,3.28
2023-05-06T14:00:33.562Z,3.45
2023-05-06T14:03:01.123Z,3.67
2023-05-06T14:05:28.256Z,3.45
2023-05-06T14:07:55.051Z,3.55
2023-05-06T14:10:22.074Z,3.60
2023-05-06T14:12:49.134Z,4.15
2023-05-06T14:15:16.022Z,3.72
2023-05-06T14:17:43.184Z,3.33
2023-05-06T14:20:10.795Z,3.13
2023-05-06T14:22:40.275Z,3.65
2023-05-06T14:25:08.230Z,3.30
2023-05-06T14:27:35.438Z,3.47
2023-05-06T14:30:08.607Z,3.30
2023-05-06T14:32:36.578Z,3.80
2023-05-06T14:35:04.264Z,3.88
2023-05-06T14:37:31.067Z,3.50
2023-05-06T14:39:58.039Z,2.22
2023-05-06T14:42:24.915Z,2.65
2023-05-06T14:44:51.695Z,3.08
2023-05-06T14:47:19.202Z,3.60
2023-05-06T14:49:46.128Z,3.33
2023-05-06T14:52:12.963Z,3.85
2023-05-06T14:54:42.773Z,3.90
2023-05-06T14:57:10.197Z,3.70
2023-05-06T14:59:37.403Z,3.90
2023-05-06T15:02:07.672Z,3.72
2023-05-06T15:04:34.947Z,3.70
2023-05-06T15:07:01.903Z,3.70
2023-05-06T15:09:28.799Z,3.80
2023-05-06T15:11:55.630Z,3.70
2023-05-06T15:14:22.459Z,3.50
2023-05-06T15:16:49.506Z,4.15
2023-05-06T15:19:16.716Z,3.85
2023-05-06T15:21:44.352Z,4.20
2023-05-06T15:24:11.317Z,4.07
2023-05-06T15:26:38.109Z,4.07
2023-05-06T15:29:06.822Z,4.30
2023-05-06T15:31:39.498Z,4.03
2023-05-06T15:34:07.724Z,4.05
2023-05-06T15:36:34.596Z,4.13
2023-05-06T15:39:01.756Z,4.30
2023-05-06T15:41:31.437Z,4.10
2023-05-06T15:43:58.661Z,3.55
2023-05-06T15:46:26.959Z,3.60
2023-05-06T15:51:40.581Z,3.90
2023-05-06T15:54:07.443Z,3.50
2023-05-06T15:56:40.596Z,3.60
2023-05-06T15:59:08.502Z,3.67
2023-05-06T16:01:54.107Z,3.55
2023-05-06T16:04:23.200Z,3.50
2023-05-06T16:09:17.146Z,3.20
2023-05-06T16:11:43.913Z,3.97
2023-05-06T16:14:10.794Z,4.00
2023-05-06T16:16:38.103Z,4.68
2023-05-06T16:19:05.141Z,4.63
2023-05-06T16:21:32.100Z,4.30
2023-05-06T16:23:59.057Z,4.40
2023-05-06T16:26:26.073Z,4.20
2023-05-06T16:28:53.937Z,4.28
2023-05-06T16:31:20.920Z,4.78
2023-05-06T16:33:48.075Z,4.50
2023-05-06T16:36:15.240Z,4.28
2023-05-06T16:38:42.542Z,4.35
2023-05-06T16:41:09.345Z,4.28
2023-05-06T16:43:36.399Z,4.15
2023-05-06T16:46:03.268Z,4.20
2023-05-06T16:48:30.338Z,4.40
2023-05-06T16:50:58.327Z,4.38
2023-05-06T16:53:28.179Z,4.10
2023-05-06T16:55:55.614Z,4.10
2023-05-06T16:58:22.614Z,4.10
2023-05-06T17:00:52.850Z,3.80
2023-05-06T17:03:20.068Z,4.20
2023-05-06T17:05:47.168Z,4.50
2023-05-06T17:08:16.226Z,4.72
2023-05-06T17:10:43.876Z,4.55
2023-05-06T17:13:11.011Z,4.50
2023-05-06T17:15:37.880Z,4.80
2023-05-06T17:18:05.179Z,4.60
2023-05-06T17:20:33.635Z,4.70
2023-05-06T17:23:05.044Z,4.95
2023-05-06T17:25:31.903Z,5.03
2023-05-06T17:27:58.882Z,4.90
2023-05-06T17:30:25.661Z,4.90
2023-05-06T17:32:52.532Z,5.03
2023-05-06T17:35:20.388Z,4.55
2023-05-06T17:37:47.206Z,4.77
2023-05-06T17:40:15.469Z,5.00
2023-05-06T17:42:42.432Z,5.18
2023-05-06T17:45:09.730Z,5.13
2023-05-06T17:47:37.344Z,5.47
2023-05-06T17:50:04.761Z,5.70
2023-05-06T17:52:31.707Z,5.90
2023-05-06T17:55:23.432Z,6.28
2023-05-06T17:57:46.110Z,6.60
2023-05-06T18:00:14.243Z,6.60
2023-05-06T18:02:41.734Z,7.00
2023-05-06T18:05:09.208Z,6.50
2023-05-06T18:07:36.516Z,7.07
2023-05-06T18:10:03.452Z,6.70
2023-05-06T18:12:31.215Z,6.50
2023-05-06T18:14:58.250Z,6.28
2023-05-06T18:17:26.070Z,4.93
2023-05-06T18:19:53.044Z,4.68
2023-05-06T18:22:19.877Z,4.38
2023-05-06T18:24:46.701Z,4.40
2023-05-06T18:27:13.694Z,4.45
2023-05-06T18:29:41.714Z,4.50
2023-05-06T18:32:08.834Z,4.60
2023-05-06T18:34:36.088Z,4.38
2023-05-06T18:37:03.823Z,4.05
2023-05-06T18:39:30.596Z,3.65
2023-05-06T18:41:57.552Z,4.15
2023-05-06T18:44:24.418Z,4.20
2023-05-06T18:46:51.411Z,4.20
2023-05-06T18:49:18.412Z,4.72
2023-05-06T18:51:45.447Z,3.90
2023-05-06T18:54:14.258Z,4.10
2023-05-06T18:56:43.831Z,3.80
2023-05-06T18:59:11.455Z,3.80
2023-05-06T19:01:38.327Z,4.20
2023-05-06T19:04:06.683Z,3.47
2023-05-06T19:06:33.727Z,3.83
2023-05-06T19:09:01.581Z,3.78
2023-05-06T19:11:28.635Z,3.40
2023-05-06T19:13:55.595Z,3.78
2023-05-06T19:16:22.663Z,3.30
2023-05-06T19:18:49.646Z,3.63
2023-05-06T19:21:18.861Z,3.25
2023-05-06T19:23:45.738Z,3.10
2023-05-06T19:26:13.853Z,3.70
2023-05-06T19:28:40.846Z,3.80
2023-05-06T19:31:09.579Z,4.07
2023-05-06T19:33:38.076Z,3.50
2023-05-06T19:36:05.390Z,4.15
2023-05-06T19:38:32.268Z,4.10
2023-05-06T19:40:59.205Z,4.07
2023-05-06T19:43:26.120Z,3.90
2023-05-06T19:45:52.877Z,3.63
2023-05-06T19:48:19.920Z,3.95
2023-05-06T19:50:46.718Z,3.90
2023-05-06T19:53:13.627Z,4.10
2023-05-06T19:55:40.576Z,3.97
2023-05-06T19:58:07.491Z,3.80
2023-05-06T20:00:34.488Z,3.65
2023-05-06T20:03:01.409Z,3.90
2023-05-06T20:05:32.177Z,3.70
2023-05-06T20:08:02.633Z,4.13
2023-05-06T20:10:29.698Z,3.90
2023-05-06T20:12:57.894Z,4.03
2023-05-06T20:15:26.749Z,3.90
2023-05-06T20:17:53.974Z,4.00
2023-05-06T20:20:21.061Z,3.80
2023-05-06T20:22:48.136Z,3.90
2023-05-06T20:25:18.961Z,3.95
2023-05-06T20:27:46.579Z,4.05
2023-05-06T20:30:13.598Z,3.88
2023-05-06T20:32:40.913Z,3.90
2023-05-06T20:35:08.834Z,4.07
2023-05-06T20:37:36.394Z,4.00
2023-05-06T20:40:05.193Z,4.25
2023-05-06T20:42:32.108Z,4.30
2023-05-06T20:44:59.422Z,3.90
2023-05-06T20:47:27.064Z,4.18
2023-05-06T20:49:54.696Z,4.28
2023-05-06T20:52:22.161Z,4.05
2023-05-06T20:54:49.321Z,4.35
2023-05-06T20:57:16.611Z,3.90
2023-05-06T20:59:43.629Z,3.97
2023-05-06T21:02:10.716Z,4.22
2023-05-06T21:04:37.944Z,4.40
2023-05-06T21:07:04.924Z,4.35
2023-05-06T21:09:31.931Z,4.53
2023-05-06T21:11:59.159Z,4.13
2023-05-06T21:14:26.957Z,4.10
2023-05-06T21:16:53.927Z,4.38
2023-05-06T21:19:21.115Z,4.53
2023-05-06T21:21:48.429Z,4.18
2023-05-06T21:24:15.595Z,4.32
2023-05-06T21:26:42.418Z,4.53
2023-05-06T21:29:09.363Z,4.45
2023-05-06T21:31:36.658Z,4.40
2023-05-06T21:34:04.373Z,4.18
2023-05-06T21:36:31.434Z,4.10
2023-05-06T21:39:12.252Z,4.32
2023-05-06T21:41:39.480Z,4.10
2023-05-06T21:44:08.446Z,4.20
2023-05-06T21:46:36.947Z,3.90
2023-05-06T21:49:04.054Z,4.13
2023-05-06T21:51:33.263Z,3.65
2023-05-06T21:56:26.921Z,4.20
2023-05-06T21:58:56.513Z,3.85
2023-05-06T22:01:26.539Z,4.57
2023-05-06T22:03:54.116Z,4.32
2023-05-06T22:06:22.047Z,4.30
2023-05-06T22:08:49.760Z,4.15
2023-05-06T22:11:16.987Z,4.68
2023-05-06T22:13:43.952Z,4.95
2023-05-06T22:16:10.969Z,5.72
2023-05-06T22:18:41.645Z,5.00
2023-05-06T22:21:09.960Z,5.35
2023-05-06T22:23:37.072Z,5.05
2023-05-06T22:26:04.528Z,4.95
2023-05-06T22:28:31.436Z,5.25
2023-05-06T22:30:58.387Z,5.00
2023-05-06T22:33:26.619Z,5.20
2023-05-06T22:35:53.893Z,5.50
2023-05-06T22:38:20.774Z,5.30
2023-05-06T22:40:47.876Z,4.97
2023-05-06T22:43:14.925Z,5.00
2023-05-06T22:45:41.806Z,5.13
2023-05-06T22:48:08.707Z,5.10
2023-05-06T22:50:36.734Z,4.80
2023-05-06T22:53:13.551Z,4.85
2023-05-06T22:55:41.897Z,5.50
2023-05-06T22:58:08.725Z,5.15
2023-05-06T23:00:35.676Z,5.00
2023-05-06T23:03:03.171Z,5.38
2023-05-06T23:05:30.253Z,4.93
2023-05-06T23:07:57.208Z,4.90
2023-05-06T23:10:23.975Z,4.90
2023-05-06T23:12:50.944Z,4.85
2023-05-06T23:15:17.833Z,4.97
2023-05-06T23:17:45.051Z,4.90
2023-05-06T23:20:13.027Z,5.18
2023-05-06T23:22:39.914Z,4.97
2023-05-06T23:25:09.339Z,5.72
2023-05-06T23:27:41.461Z,4.70
2023-05-06T23:30:08.970Z,5.03
2023-05-06T23:32:36.071Z,4.20
2023-05-06T23:35:03.140Z,4.45
2023-05-06T23:37:29.944Z,4.88
2023-05-06T23:39:58.733Z,5.03
2023-05-06T23:42:26.289Z,5.18
2023-05-06T23:44:53.705Z,4.97
2023-05-06T23:47:20.555Z,4.60
2023-05-06T23:49:47.408Z,4.88
2023-05-06T23:52:14.303Z,4.82
2023-05-06T23:54:41.117Z,4.93
2023-05-06T23:57:08.098Z,5.65
2023-05-06T23:59:35.162Z,5.50
